Aérodrome :
LOGIN :

S'inscrire | Disclaimer

   EN    FR    IT 

 










Légende :    VFR   VFR Marginal   IFR   IFR Intensif   IFR Très Intensif
Visi : 
Plafond : 
>= 8 km
>= 3000ft
5 à 8 km
1000 à 3000 ft
1500m à 5 km
500 à 1000 ft
800 à 1500m
200 à 500 ft
< 800m
< 200 ft
Symboles :   Orages  Brouillard  Fortes neiges  Fortes précipitations  Vent > 20 kt
SIGMETs :   Divers  Orages  Givrage  Turbulence  Onde Orograph.  Cendres Volcan.







- Altitude de l'aérodrome : 1416 ft
- Code IATA : ZRH


LSZH - Zurich

DERNIER METAR :
  • 210650Z 27008KT 230V300 9999 FEW011 SCT016 BKN024 11/09 Q1012 NOSIG

METARs EXPIRÉS :
  • 210620Z 26007KT 200V300 9999 FEW012 SCT017 BKN027 11/09 Q1012 NOSIG
  • 210550Z 26009KT 9999 FEW010 SCT016 BKN025 11/09 Q1012 NOSIG
  • 210520Z 26007KT 9999 FEW011 SCT014 BKN018 11/09 Q1012 NOSIG
  • 210450Z 26008KT 9999 FEW012 SCT019 BKN024 11/08 Q1011 TEMPO RA
  • 210420Z 26007KT 220V280 9999 FEW010 BKN020 11/08 Q1011 NOSIG

TAF TAF LSZH
Valide du 21 à 06h jusqu'au 22 à 12h UTC


210525Z 2106/2212 26009KT 9999 FEW014 SCT015 BKN025 TX15/2115Z TN11/2106Z TN09/2205Z
TEMPO 2106/2202 RA
PROB40
TEMPO 2110/2120 SHRA FEW018TCU BKN020
PROB30 2202/2207 4500 MIFG FEW001
ATIS : +41 43 816 2295 (DEP) +41 43 816 2294 (ARR)
Pas de NOTAMs connus pour ce terrain.



MET'MAP, la Météo Aéronautique d'un coup d'oeil ! - Copyright ORBIFLY Décembre 2007 - Disclaimer

ORBIFLY MET'MAP TEAM :

Programmation & Développement : Alexandra Zaïnal
Conception & Développement : Baudouin d'Aumeries
Co-Programmation & Développement : Marc-Olivier Méhu
Soutien technique & logistique : Manuel Goepfert

Contact : metmap@orbifly.com




SOURCES & CREDITS :

   NOAA